Gassoway, Louisiana
Current Conditions -  °F | °C
As of 5:53 AM on Thursday 29 Jan 2015 (Local Time) from KTVR Reporting Station
Scattered Clouds Scattered Clouds  
Wind Chill: 51°   Ceiling: Unl
Heat Index: 51°   Visibility: 10mi
Dew Point: 43°   Wind: 5mph
Humidity: 74%   Direction: 190°S
Pressure: 30.16"   Gusts: NA
Location:  32.8408°N, 91.231°W
Report Text: KTVR 291153Z AUTO 19004KT 10SM SCT120 11/06 A3016 RMK AO2 SLP219 T01060061 10122 20083 56008
Loading
Personal Weather Stations






























Interactive Weather Map New forecast layout! Learn more

10-Day Weather Forecast

Advertisements
Track Severe Weather on mobile